sensor_id;sensor_type;location;lat;lon;timestamp;pressure;altitude;pressure_sealevel;temperature;humidity
75895;BME280;64573;50.328;15.014;2022-11-15T00:00:53;99033.19;;;4.50;96.82
75895;BME280;64573;50.328;15.014;2022-11-15T00:03:24;99035.41;;;4.45;96.72
75895;BME280;64573;50.328;15.014;2022-11-15T00:05:50;99032.63;;;4.37;96.82
75895;BME280;64573;50.328;15.014;2022-11-15T00:08:16;99031.06;;;4.34;96.70
75895;BME280;64573;50.328;15.014;2022-11-15T00:10:41;99026.47;;;4.27;96.90
75895;BME280;64573;50.328;15.014;2022-11-15T00:13:11;99033.34;;;4.29;97.18
75895;BME280;64573;50.328;15.014;2022-11-15T00:18:03;99029.41;;;4.33;97.37
75895;BME280;64573;50.328;15.014;2022-11-15T00:20:29;99032.88;;;4.34;97.29
75895;BME280;64573;50.328;15.014;2022-11-15T00:22:55;99036.25;;;4.36;97.11
75895;BME280;64573;50.328;15.014;2022-11-15T00:25:20;99035.97;;;4.20;97.24
75895;BME280;64573;50.328;15.014;2022-11-15T00:27:45;99048.09;;;4.12;97.39
75895;BME280;64573;50.328;15.014;2022-11-15T00:30:11;99041.81;;;4.04;97.27
75895;BME280;64573;50.328;15.014;2022-11-15T00:32:37;99039.56;;;3.90;97.80
75895;BME280;64573;50.328;15.014;2022-11-15T00:35:03;99039.56;;;3.80;97.57
75895;BME280;64573;50.328;15.014;2022-11-15T00:37:28;99047.50;;;3.70;98.12
75895;BME280;64573;50.328;15.014;2022-11-15T00:39:53;99039.78;;;3.57;97.86
75895;BME280;64573;50.328;15.014;2022-11-15T00:42:19;99055.84;;;3.56;98.12
75895;BME280;64573;50.328;15.014;2022-11-15T00:44:44;99048.31;;;3.61;98.41
75895;BME280;64573;50.328;15.014;2022-11-15T00:47:10;99041.53;;;3.38;98.44
75895;BME280;64573;50.328;15.014;2022-11-15T00:49:35;99041.38;;;3.29;98.09
75895;BME280;64573;50.328;15.014;2022-11-15T00:52:00;99050.47;;;3.06;98.54
75895;BME280;64573;50.328;15.014;2022-11-15T00:54:26;99039.22;;;2.83;98.36
75895;BME280;64573;50.328;15.014;2022-11-15T00:56:51;99036.34;;;2.75;98.73
75895;BME280;64573;50.328;15.014;2022-11-15T00:59:16;99037.31;;;2.74;99.08
75895;BME280;64573;50.328;15.014;2022-11-15T01:01:42;99046.09;;;2.74;99.05
75895;BME280;64573;50.328;15.014;2022-11-15T01:04:07;99042.50;;;2.75;99.15
75895;BME280;64573;50.328;15.014;2022-11-15T01:06:32;99036.34;;;2.75;99.35
75895;BME280;64573;50.328;15.014;2022-11-15T01:08:58;99033.69;;;2.75;99.65
75895;BME280;64573;50.328;15.014;2022-11-15T01:11:23;99027.78;;;2.83;99.31
75895;BME280;64573;50.328;15.014;2022-11-15T01:13:48;99028.66;;;2.93;99.73
75895;BME280;64573;50.328;15.014;2022-11-15T01:16:17;99025.31;;;2.91;99.67
75895;BME280;64573;50.328;15.014;2022-11-15T01:18:44;99022.84;;;2.78;99.53
75895;BME280;64573;50.328;15.014;2022-11-15T01:21:13;99012.81;;;2.82;99.63
75895;BME280;64573;50.328;15.014;2022-11-15T01:23:39;99012.00;;;2.60;99.98
75895;BME280;64573;50.328;15.014;2022-11-15T01:26:06;99016.47;;;2.60;99.92
75895;BME280;64573;50.328;15.014;2022-11-15T01:28:33;99016.53;;;2.69;99.89
75895;BME280;64573;50.328;15.014;2022-11-15T01:31:05;99016.22;;;2.84;99.71
75895;BME280;64573;50.328;15.014;2022-11-15T01:33:34;99016.28;;;2.52;99.75
75895;BME280;64573;50.328;15.014;2022-11-15T01:36:26;99013.19;;;2.46;99.80
75895;BME280;64573;50.328;15.014;2022-11-15T01:38:56;99003.13;;;2.61;99.96
75895;BME280;64573;50.328;15.014;2022-11-15T01:41:24;98997.31;;;2.98;99.99
75895;BME280;64573;50.328;15.014;2022-11-15T01:43:53;99009.00;;;2.95;100.00
75895;BME280;64573;50.328;15.014;2022-11-15T01:46:23;99001.09;;;2.74;100.00
75895;BME280;64573;50.328;15.014;2022-11-15T01:48:51;98984.09;;;2.26;100.00
75895;BME280;64573;50.328;15.014;2022-11-15T01:51:19;98981.38;;;1.84;100.00
75895;BME280;64573;50.328;15.014;2022-11-15T01:53:47;98987.09;;;1.68;99.58
75895;BME280;64573;50.328;15.014;2022-11-15T01:56:25;98990.34;;;1.92;99.70
75895;BME280;64573;50.328;15.014;2022-11-15T01:58:52;98996.16;;;2.18;99.85
75895;BME280;64573;50.328;15.014;2022-11-15T02:01:21;98989.94;;;2.29;100.00
75895;BME280;64573;50.328;15.014;2022-11-15T02:04:14;98993.13;;;1.91;99.98
75895;BME280;64573;50.328;15.014;2022-11-15T02:06:41;98988.88;;;1.68;100.00
75895;BME280;64573;50.328;15.014;2022-11-15T02:09:07;98985.13;;;2.02;100.00
75895;BME280;64573;50.328;15.014;2022-11-15T02:11:33;98983.00;;;1.64;100.00
75895;BME280;64573;50.328;15.014;2022-11-15T02:13:59;98993.00;;;1.49;99.84
75895;BME280;64573;50.328;15.014;2022-11-15T02:30:20;98984.16;;;1.82;100.00
75895;BME280;64573;50.328;15.014;2022-11-15T02:32:57;98977.75;;;1.85;100.00
75895;BME280;64573;50.328;15.014;2022-11-15T02:35:59;98977.22;;;1.70;100.00
75895;BME280;64573;50.328;15.014;2022-11-15T02:38:43;98983.53;;;1.79;100.00
75895;BME280;64573;50.328;15.014;2022-11-15T02:41:27;98978.13;;;1.80;100.00
75895;BME280;64573;50.328;15.014;2022-11-15T02:44:02;98965.75;;;1.49;100.00
75895;BME280;64573;50.328;15.014;2022-11-15T02:46:37;98970.81;;;1.41;100.00
75895;BME280;64573;50.328;15.014;2022-11-15T02:49:25;98959.13;;;1.43;100.00
75895;BME280;64573;50.328;15.014;2022-11-15T02:51:52;98962.13;;;1.50;100.00
75895;BME280;64573;50.328;15.014;2022-11-15T02:54:31;98963.66;;;1.63;100.00
75895;BME280;64573;50.328;15.014;2022-11-15T02:57:06;98954.56;;;1.88;100.00
75895;BME280;64573;50.328;15.014;2022-11-15T03:00:03;98957.28;;;1.98;100.00
75895;BME280;64573;50.328;15.014;2022-11-15T03:08:00;98949.81;;;2.03;100.00
75895;BME280;64573;50.328;15.014;2022-11-15T03:13:35;98945.13;;;2.16;100.00
75895;BME280;64573;50.328;15.014;2022-11-15T03:18:35;98931.53;;;2.21;100.00
75895;BME280;64573;50.328;15.014;2022-11-15T03:23:32;98934.19;;;2.21;100.00
75895;BME280;64573;50.328;15.014;2022-11-15T03:25:59;98935.00;;;2.21;100.00
75895;BME280;64573;50.328;15.014;2022-11-15T03:28:32;98928.88;;;1.47;100.00
75895;BME280;64573;50.328;15.014;2022-11-15T03:30:58;98928.09;;;1.24;100.00
75895;BME280;64573;50.328;15.014;2022-11-15T03:33:28;98930.97;;;1.32;100.00
75895;BME280;64573;50.328;15.014;2022-11-15T03:35:54;98926.44;;;1.55;100.00
75895;BME280;64573;50.328;15.014;2022-11-15T03:38:26;98928.59;;;1.61;100.00
75895;BME280;64573;50.328;15.014;2022-11-15T03:46:00;98929.16;;;1.65;100.00
75895;BME280;64573;50.328;15.014;2022-11-15T03:48:30;98927.53;;;1.53;100.00
75895;BME280;64573;50.328;15.014;2022-11-15T03:50:59;98927.97;;;1.26;100.00
75895;BME280;64573;50.328;15.014;2022-11-15T03:53:25;98926.47;;;1.44;100.00
75895;BME280;64573;50.328;15.014;2022-11-15T03:55:50;98920.19;;;1.56;100.00
75895;BME280;64573;50.328;15.014;2022-11-15T03:58:15;98913.13;;;1.78;100.00
75895;BME280;64573;50.328;15.014;2022-11-15T04:00:41;98912.72;;;1.61;100.00
75895;BME280;64573;50.328;15.014;2022-11-15T04:03:06;98911.28;;;1.57;100.00
75895;BME280;64573;50.328;15.014;2022-11-15T04:05:33;98911.28;;;1.57;100.00
75895;BME280;64573;50.328;15.014;2022-11-15T04:07:58;98903.22;;;1.59;100.00
75895;BME280;64573;50.328;15.014;2022-11-15T04:10:23;98901.84;;;1.44;100.00
75895;BME280;64573;50.328;15.014;2022-11-15T04:12:49;98894.59;;;1.25;100.00
75895;BME280;64573;50.328;15.014;2022-11-15T04:15:20;98898.00;;;1.04;100.00
75895;BME280;64573;50.328;15.014;2022-11-15T04:17:50;98896.22;;;0.82;100.00
75895;BME280;64573;50.328;15.014;2022-11-15T04:20:19;98890.13;;;0.60;100.00
75895;BME280;64573;50.328;15.014;2022-11-15T04:23:10;98888.22;;;0.62;100.00
75895;BME280;64573;50.328;15.014;2022-11-15T04:25:55;98894.81;;;0.67;100.00
75895;BME280;64573;50.328;15.014;2022-11-15T04:28:22;98890.34;;;0.79;100.00
75895;BME280;64573;50.328;15.014;2022-11-15T04:30:47;98893.94;;;0.89;100.00
75895;BME280;64573;50.328;15.014;2022-11-15T04:33:13;98888.28;;;0.94;100.00
75895;BME280;64573;50.328;15.014;2022-11-15T04:35:38;98882.78;;;0.86;100.00
75895;BME280;64573;50.328;15.014;2022-11-15T04:38:07;98870.31;;;0.76;100.00
75895;BME280;64573;50.328;15.014;2022-11-15T04:40:33;98862.75;;;0.72;100.00
75895;BME280;64573;50.328;15.014;2022-11-15T04:42:58;98862.13;;;0.79;100.00
75895;BME280;64573;50.328;15.014;2022-11-15T04:45:24;98877.56;;;1.18;100.00
75895;BME280;64573;50.328;15.014;2022-11-15T04:47:49;98876.09;;;1.57;100.00
75895;BME280;64573;50.328;15.014;2022-11-15T04:50:15;98880.72;;;1.97;100.00
75895;BME280;64573;50.328;15.014;2022-11-15T04:55:10;98886.22;;;1.08;100.00
75895;BME280;64573;50.328;15.014;2022-11-15T04:57:36;98884.31;;;1.10;100.00
75895;BME280;64573;50.328;15.014;2022-11-15T05:00:04;98884.59;;;1.28;100.00
75895;BME280;64573;50.328;15.014;2022-11-15T05:02:30;98883.97;;;1.68;100.00
75895;BME280;64573;50.328;15.014;2022-11-15T05:05:15;98897.06;;;2.32;100.00
75895;BME280;64573;50.328;15.014;2022-11-15T05:07:41;98899.91;;;2.40;100.00
75895;BME280;64573;50.328;15.014;2022-11-15T05:10:06;98900.94;;;2.28;100.00
75895;BME280;64573;50.328;15.014;2022-11-15T05:12:31;98908.50;;;2.12;100.00
75895;BME280;64573;50.328;15.014;2022-11-15T05:14:57;98913.53;;;1.94;100.00
75895;BME280;64573;50.328;15.014;2022-11-15T05:17:22;98909.66;;;1.98;100.00
75895;BME280;64573;50.328;15.014;2022-11-15T05:19:47;98907.59;;;2.02;100.00
75895;BME280;64573;50.328;15.014;2022-11-15T05:22:13;98904.19;;;2.11;100.00
75895;BME280;64573;50.328;15.014;2022-11-15T05:24:38;98888.63;;;2.17;100.00
75895;BME280;64573;50.328;15.014;2022-11-15T05:27:03;98892.88;;;2.30;100.00
75895;BME280;64573;50.328;15.014;2022-11-15T05:29:29;98898.78;;;2.43;100.00
75895;BME280;64573;50.328;15.014;2022-11-15T05:31:54;98894.13;;;2.56;100.00
75895;BME280;64573;50.328;15.014;2022-11-15T05:34:20;98905.56;;;2.66;100.00
75895;BME280;64573;50.328;15.014;2022-11-15T05:36:48;98886.25;;;2.75;100.00
75895;BME280;64573;50.328;15.014;2022-11-15T05:39:14;98885.69;;;2.82;100.00
75895;BME280;64573;50.328;15.014;2022-11-15T05:44:10;98894.41;;;3.03;100.00
75895;BME280;64573;50.328;15.014;2022-11-15T05:46:38;98904.03;;;3.04;100.00
75895;BME280;64573;50.328;15.014;2022-11-15T05:49:05;98902.66;;;3.10;100.00
75895;BME280;64573;50.328;15.014;2022-11-15T05:51:35;98903.63;;;3.09;100.00
75895;BME280;64573;50.328;15.014;2022-11-15T05:54:01;98901.28;;;3.06;100.00
75895;BME280;64573;50.328;15.014;2022-11-15T05:56:27;98897.78;;;3.05;100.00
75895;BME280;64573;50.328;15.014;2022-11-15T05:58:55;98895.13;;;3.05;100.00
75895;BME280;64573;50.328;15.014;2022-11-15T06:01:22;98900.53;;;3.03;100.00
75895;BME280;64573;50.328;15.014;2022-11-15T06:03:48;98903.75;;;2.97;100.00
75895;BME280;64573;50.328;15.014;2022-11-15T06:06:13;98904.47;;;2.99;100.00
75895;BME280;64573;50.328;15.014;2022-11-15T06:08:39;98902.06;;;2.96;100.00
75895;BME280;64573;50.328;15.014;2022-11-15T06:13:31;98906.81;;;2.93;100.00
75895;BME280;64573;50.328;15.014;2022-11-15T06:15:56;98899.25;;;2.88;100.00
75895;BME280;64573;50.328;15.014;2022-11-15T06:18:21;98890.75;;;2.85;100.00
75895;BME280;64573;50.328;15.014;2022-11-15T06:20:47;98887.25;;;2.84;100.00
75895;BME280;64573;50.328;15.014;2022-11-15T06:23:12;98890.06;;;2.83;100.00
75895;BME280;64573;50.328;15.014;2022-11-15T06:25:38;98883.88;;;2.82;100.00
75895;BME280;64573;50.328;15.014;2022-11-15T06:28:04;98891.59;;;2.85;100.00
75895;BME280;64573;50.328;15.014;2022-11-15T06:30:29;98892.69;;;2.83;100.00
75895;BME280;64573;50.328;15.014;2022-11-15T06:33:07;98899.91;;;2.81;100.00
75895;BME280;64573;50.328;15.014;2022-11-15T06:38:07;98903.53;;;2.80;100.00
75895;BME280;64573;50.328;15.014;2022-11-15T06:40:37;98894.47;;;2.72;100.00
75895;BME280;64573;50.328;15.014;2022-11-15T06:43:03;98902.16;;;2.75;100.00
75895;BME280;64573;50.328;15.014;2022-11-15T06:45:29;98899.75;;;2.72;100.00
75895;BME280;64573;50.328;15.014;2022-11-15T06:47:55;98888.72;;;2.67;100.00
75895;BME280;64573;50.328;15.014;2022-11-15T06:50:20;98898.59;;;2.65;100.00
75895;BME280;64573;50.328;15.014;2022-11-15T06:52:46;98908.09;;;2.68;100.00
75895;BME280;64573;50.328;15.014;2022-11-15T06:55:12;98903.22;;;2.63;100.00
75895;BME280;64573;50.328;15.014;2022-11-15T06:57:46;98899.97;;;2.60;100.00
75895;BME280;64573;50.328;15.014;2022-11-15T07:00:12;98896.09;;;2.64;100.00
75895;BME280;64573;50.328;15.014;2022-11-15T07:05:03;98905.56;;;2.66;100.00
75895;BME280;64573;50.328;15.014;2022-11-15T07:07:28;98879.06;;;2.57;100.00
75895;BME280;64573;50.328;15.014;2022-11-15T07:09:53;98891.78;;;2.63;100.00
75895;BME280;64573;50.328;15.014;2022-11-15T07:12:21;98898.75;;;2.64;100.00
75895;BME280;64573;50.328;15.014;2022-11-15T07:14:47;98904.34;;;2.70;100.00
75895;BME280;64573;50.328;15.014;2022-11-15T07:19:41;98903.53;;;2.80;100.00
75895;BME280;64573;50.328;15.014;2022-11-15T07:22:06;98912.06;;;2.83;100.00
75895;BME280;64573;50.328;15.014;2022-11-15T07:24:32;98918.06;;;2.85;100.00
75895;BME280;64573;50.328;15.014;2022-11-15T07:26:57;98925.44;;;2.82;100.00
75895;BME280;64573;50.328;15.014;2022-11-15T07:29:22;98934.22;;;2.82;100.00
75895;BME280;64573;50.328;15.014;2022-11-15T07:36:38;98910.09;;;2.75;100.00
75895;BME280;64573;50.328;15.014;2022-11-15T07:41:33;98929.19;;;2.79;100.00
75895;BME280;64573;50.328;15.014;2022-11-15T07:43:58;98930.94;;;2.90;100.00
75895;BME280;64573;50.328;15.014;2022-11-15T07:46:24;98932.31;;;2.94;100.00
75895;BME280;64573;50.328;15.014;2022-11-15T07:48:49;98928.56;;;2.96;100.00
75895;BME280;64573;50.328;15.014;2022-11-15T07:51:15;98937.22;;;2.98;100.00
75895;BME280;64573;50.328;15.014;2022-11-15T07:56:16;98922.31;;;3.07;100.00
75895;BME280;64573;50.328;15.014;2022-11-15T07:58:42;98918.63;;;2.89;100.00
75895;BME280;64573;50.328;15.014;2022-11-15T08:05:57;98911.97;;;2.94;100.00
75895;BME280;64573;50.328;15.014;2022-11-15T08:08:23;98899.72;;;3.03;100.00
75895;BME280;64573;50.328;15.014;2022-11-15T08:10:48;98887.19;;;3.15;100.00
75895;BME280;64573;50.328;15.014;2022-11-15T08:13:14;98900.31;;;3.16;100.00
75895;BME280;64573;50.328;15.014;2022-11-15T08:15:39;98890.56;;;3.26;100.00
75895;BME280;64573;50.328;15.014;2022-11-15T08:20:32;98898.50;;;3.17;100.00
75895;BME280;64573;50.328;15.014;2022-11-15T08:22:59;98901.44;;;3.23;100.00
75895;BME280;64573;50.328;15.014;2022-11-15T08:25:25;98897.81;;;3.24;100.00
75895;BME280;64573;50.328;15.014;2022-11-15T08:27:53;98892.25;;;3.37;100.00
75895;BME280;64573;50.328;15.014;2022-11-15T08:31:16;98894.91;;;3.47;100.00
75895;BME280;64573;50.328;15.014;2022-11-15T08:33:43;98899.25;;;3.48;100.00
75895;BME280;64573;50.328;15.014;2022-11-15T08:38:55;98903.88;;;3.65;100.00
75895;BME280;64573;50.328;15.014;2022-11-15T08:41:33;98900.22;;;3.47;100.00
75895;BME280;64573;50.328;15.014;2022-11-15T08:44:02;98906.78;;;3.43;100.00
75895;BME280;64573;50.328;15.014;2022-11-15T08:46:27;98893.66;;;3.51;100.00
75895;BME280;64573;50.328;15.014;2022-11-15T08:48:53;98892.84;;;3.41;100.00
75895;BME280;64573;50.328;15.014;2022-11-15T08:51:22;98890.72;;;3.54;100.00
75895;BME280;64573;50.328;15.014;2022-11-15T08:53:47;98888.34;;;3.31;100.00
75895;BME280;64573;50.328;15.014;2022-11-15T08:56:14;98880.66;;;3.28;100.00
75895;BME280;64573;50.328;15.014;2022-11-15T08:58:40;98886.94;;;3.27;100.00
75895;BME280;64573;50.328;15.014;2022-11-15T09:01:05;98886.25;;;3.45;100.00
75895;BME280;64573;50.328;15.014;2022-11-15T09:03:30;98882.38;;;3.49;100.00
75895;BME280;64573;50.328;15.014;2022-11-15T09:05:57;98892.00;;;3.50;100.00
75895;BME280;64573;50.328;15.014;2022-11-15T09:08:24;98886.53;;;3.51;100.00
75895;BME280;64573;50.328;15.014;2022-11-15T09:10:50;98882.63;;;3.26;100.00
75895;BME280;64573;50.328;15.014;2022-11-15T09:13:16;98874.28;;;3.50;100.00
75895;BME280;64573;50.328;15.014;2022-11-15T09:15:42;98882.50;;;3.57;100.00
75895;BME280;64573;50.328;15.014;2022-11-15T09:18:07;98882.91;;;3.62;100.00
75895;BME280;64573;50.328;15.014;2022-11-15T09:20:33;98875.13;;;3.70;100.00
75895;BME280;64573;50.328;15.014;2022-11-15T09:23:02;98874.13;;;3.71;100.00
75895;BME280;64573;50.328;15.014;2022-11-15T09:25:29;98874.81;;;3.73;100.00
75895;BME280;64573;50.328;15.014;2022-11-15T09:27:57;98871.06;;;3.56;100.00
75895;BME280;64573;50.328;15.014;2022-11-15T09:30:24;98868.41;;;3.37;100.00
75895;BME280;64573;50.328;15.014;2022-11-15T09:32:49;98876.38;;;3.56;100.00
75895;BME280;64573;50.328;15.014;2022-11-15T09:35:15;98852.19;;;3.69;100.00
75895;BME280;64573;50.328;15.014;2022-11-15T09:37:41;98858.19;;;3.91;100.00
75895;BME280;64573;50.328;15.014;2022-11-15T09:40:11;98854.03;;;3.78;100.00
75895;BME280;64573;50.328;15.014;2022-11-15T09:45:37;98860.28;;;4.06;100.00
75895;BME280;64573;50.328;15.014;2022-11-15T09:48:51;98857.88;;;4.03;100.00
75895;BME280;64573;50.328;15.014;2022-11-15T09:56:22;98858.78;;;3.84;100.00
75895;BME280;64573;50.328;15.014;2022-11-15T10:03:57;98858.19;;;4.00;100.00
75895;BME280;64573;50.328;15.014;2022-11-15T10:06:25;98859.13;;;4.09;100.00
75895;BME280;64573;50.328;15.014;2022-11-15T10:11:24;98846.97;;;4.16;100.00
75895;BME280;64573;50.328;15.014;2022-11-15T10:13:52;98845.75;;;4.01;100.00
75895;BME280;64573;50.328;15.014;2022-11-15T10:21:24;98837.88;;;4.19;100.00
75895;BME280;64573;50.328;15.014;2022-11-15T10:23:52;98836.25;;;3.98;100.00
75895;BME280;64573;50.328;15.014;2022-11-15T10:26:18;98828.28;;;4.08;100.00
75895;BME280;64573;50.328;15.014;2022-11-15T10:28:43;98822.22;;;4.25;100.00
75895;BME280;64573;50.328;15.014;2022-11-15T10:31:22;98820.78;;;4.31;100.00
75895;BME280;64573;50.328;15.014;2022-11-15T10:33:49;98820.38;;;4.35;100.00
75895;BME280;64573;50.328;15.014;2022-11-15T10:41:11;98809.28;;;4.50;100.00
75895;BME280;64573;50.328;15.014;2022-11-15T10:43:37;98799.91;;;4.46;100.00
75895;BME280;64573;50.328;15.014;2022-11-15T10:46:19;98803.97;;;4.50;100.00
75895;BME280;64573;50.328;15.014;2022-11-15T10:48:45;98800.25;;;4.60;100.00
75895;BME280;64573;50.328;15.014;2022-11-15T10:51:20;98795.84;;;4.51;100.00
75895;BME280;64573;50.328;15.014;2022-11-15T10:53:48;98802.59;;;4.63;100.00
75895;BME280;64573;50.328;15.014;2022-11-15T10:56:14;98796.72;;;4.69;100.00
75895;BME280;64573;50.328;15.014;2022-11-15T10:58:52;98787.38;;;4.65;100.00
75895;BME280;64573;50.328;15.014;2022-11-15T11:06:14;98780.94;;;4.68;100.00
75895;BME280;64573;50.328;15.014;2022-11-15T11:08:54;98770.94;;;4.80;100.00
75895;BME280;64573;50.328;15.014;2022-11-15T11:11:19;98770.03;;;4.71;100.00
75895;BME280;64573;50.328;15.014;2022-11-15T11:13:45;98774.88;;;4.76;100.00
75895;BME280;64573;50.328;15.014;2022-11-15T11:16:42;98776.94;;;4.54;100.00
75895;BME280;64573;50.328;15.014;2022-11-15T11:22:15;98761.91;;;4.45;100.00
75895;BME280;64573;50.328;15.014;2022-11-15T11:30:04;98760.31;;;4.80;100.00
75895;BME280;64573;50.328;15.014;2022-11-15T11:32:58;98755.09;;;4.88;100.00
75895;BME280;64573;50.328;15.014;2022-11-15T11:46:24;98751.06;;;5.02;100.00
75895;BME280;64573;50.328;15.014;2022-11-15T11:49:06;98752.72;;;5.03;100.00
75895;BME280;64573;50.328;15.014;2022-11-15T11:54:24;98740.28;;;4.85;100.00
75895;BME280;64573;50.328;15.014;2022-11-15T11:56:53;98737.75;;;4.84;100.00
75895;BME280;64573;50.328;15.014;2022-11-15T12:04:35;98730.31;;;4.69;100.00
75895;BME280;64573;50.328;15.014;2022-11-15T12:07:17;98710.66;;;4.80;100.00
75895;BME280;64573;50.328;15.014;2022-11-15T12:12:41;98705.88;;;4.84;100.00
75895;BME280;64573;50.328;15.014;2022-11-15T12:15:16;98700.44;;;4.85;99.99
75895;BME280;64573;50.328;15.014;2022-11-15T12:17:42;98697.06;;;4.83;100.00
75895;BME280;64573;50.328;15.014;2022-11-15T12:20:21;98695.16;;;4.76;100.00
75895;BME280;64573;50.328;15.014;2022-11-15T12:23:04;98681.13;;;4.65;99.91
75895;BME280;64573;50.328;15.014;2022-11-15T12:25:44;98679.91;;;4.78;100.00
75895;BME280;64573;50.328;15.014;2022-11-15T12:28:34;98685.09;;;4.79;99.99
75895;BME280;64573;50.328;15.014;2022-11-15T12:31:06;98672.03;;;4.86;99.99
75895;BME280;64573;50.328;15.014;2022-11-15T12:36:34;98662.53;;;4.83;99.26
75895;BME280;64573;50.328;15.014;2022-11-15T12:39:10;98656.09;;;4.86;99.32
75895;BME280;64573;50.328;15.014;2022-11-15T12:41:38;98650.63;;;4.87;99.32
75895;BME280;64573;50.328;15.014;2022-11-15T12:44:10;98656.22;;;4.84;99.40
75895;BME280;64573;50.328;15.014;2022-11-15T13:04:45;98651.22;;;4.81;98.70
75895;BME280;64573;50.328;15.014;2022-11-15T13:13:00;98644.31;;;4.88;98.88
75895;BME280;64573;50.328;15.014;2022-11-15T13:17:56;98637.50;;;4.68;98.57
75895;BME280;64573;50.328;15.014;2022-11-15T13:22:52;98631.03;;;4.53;99.39
75895;BME280;64573;50.328;15.014;2022-11-15T13:30:36;98627.31;;;4.46;99.71
75895;BME280;64573;50.328;15.014;2022-11-15T13:33:13;98626.50;;;4.45;99.26
75895;BME280;64573;50.328;15.014;2022-11-15T13:40:49;98608.22;;;4.42;99.05
75895;BME280;64573;50.328;15.014;2022-11-15T13:46:07;98591.13;;;4.45;99.01
75895;BME280;64573;50.328;15.014;2022-11-15T13:48:33;98586.50;;;4.47;99.15
75895;BME280;64573;50.328;15.014;2022-11-15T13:51:00;98581.34;;;4.45;99.11
75895;BME280;64573;50.328;15.014;2022-11-15T13:53:27;98580.91;;;4.50;99.22
75895;BME280;64573;50.328;15.014;2022-11-15T13:55:54;98575.22;;;4.45;98.88
75895;BME280;64573;50.328;15.014;2022-11-15T13:58:21;98581.88;;;4.49;98.86
75895;BME280;64573;50.328;15.014;2022-11-15T14:00:46;98581.56;;;4.52;99.03
75895;BME280;64573;50.328;15.014;2022-11-15T14:05:41;98572.41;;;4.64;98.84
75895;BME280;64573;50.328;15.014;2022-11-15T14:08:23;98571.09;;;4.68;99.11
75895;BME280;64573;50.328;15.014;2022-11-15T14:11:09;98572.06;;;4.67;99.12
75895;BME280;64573;50.328;15.014;2022-11-15T14:13:36;98576.72;;;4.65;99.01
75895;BME280;64573;50.328;15.014;2022-11-15T14:16:19;98564.63;;;4.70;98.78
75895;BME280;64573;50.328;15.014;2022-11-15T14:18:48;98562.28;;;4.67;98.49
75895;BME280;64573;50.328;15.014;2022-11-15T14:21:15;98558.97;;;4.65;98.70
75895;BME280;64573;50.328;15.014;2022-11-15T14:23:41;98551.81;;;4.66;98.85
75895;BME280;64573;50.328;15.014;2022-11-15T14:26:27;98548.34;;;4.65;98.53
75895;BME280;64573;50.328;15.014;2022-11-15T14:28:53;98555.16;;;4.68;98.66
75895;BME280;64573;50.328;15.014;2022-11-15T14:31:19;98557.13;;;4.66;98.87
75895;BME280;64573;50.328;15.014;2022-11-15T14:33:45;98553.47;;;4.67;98.75
75895;BME280;64573;50.328;15.014;2022-11-15T14:36:16;98558.63;;;4.68;98.84
75895;BME280;64573;50.328;15.014;2022-11-15T14:38:42;98555.81;;;4.70;98.56
75895;BME280;64573;50.328;15.014;2022-11-15T14:41:26;98550.22;;;4.73;98.58
75895;BME280;64573;50.328;15.014;2022-11-15T14:43:52;98549.38;;;4.73;98.83
75895;BME280;64573;50.328;15.014;2022-11-15T14:46:18;98549.53;;;4.71;98.79
75895;BME280;64573;50.328;15.014;2022-11-15T14:48:44;98545.91;;;4.72;98.89
75895;BME280;64573;50.328;15.014;2022-11-15T14:51:14;98550.88;;;4.75;98.42
75895;BME280;64573;50.328;15.014;2022-11-15T14:53:41;98547.06;;;4.78;98.48
75895;BME280;64573;50.328;15.014;2022-11-15T14:56:07;98537.59;;;4.75;98.74
75895;BME280;64573;50.328;15.014;2022-11-15T14:58:32;98539.66;;;4.81;98.37
75895;BME280;64573;50.328;15.014;2022-11-15T15:00:58;98528.69;;;4.84;98.54
75895;BME280;64573;50.328;15.014;2022-11-15T15:03:23;98516.56;;;4.82;98.53
75895;BME280;64573;50.328;15.014;2022-11-15T15:05:48;98510.75;;;4.78;98.42
75895;BME280;64573;50.328;15.014;2022-11-15T15:08:14;98515.91;;;4.80;98.51
75895;BME280;64573;50.328;15.014;2022-11-15T15:10:44;98518.56;;;4.80;98.73
75895;BME280;64573;50.328;15.014;2022-11-15T15:13:21;98518.72;;;4.78;98.06
75895;BME280;64573;50.328;15.014;2022-11-15T15:15:47;98514.91;;;4.81;97.99
75895;BME280;64573;50.328;15.014;2022-11-15T15:18:13;98502.44;;;4.81;98.45
75895;BME280;64573;50.328;15.014;2022-11-15T15:20:39;98499.97;;;4.80;98.39
75895;BME280;64573;50.328;15.014;2022-11-15T15:23:15;98501.78;;;4.79;98.34
75895;BME280;64573;50.328;15.014;2022-11-15T15:25:45;98491.78;;;4.73;98.43
75895;BME280;64573;50.328;15.014;2022-11-15T15:28:12;98491.78;;;4.73;98.50
75895;BME280;64573;50.328;15.014;2022-11-15T15:30:37;98496.75;;;4.76;98.71
75895;BME280;64573;50.328;15.014;2022-11-15T15:33:03;98503.44;;;4.80;98.36
75895;BME280;64573;50.328;15.014;2022-11-15T15:35:33;98497.13;;;4.81;98.98
75895;BME280;64573;50.328;15.014;2022-11-15T15:37:59;98493.66;;;4.81;98.45
75895;BME280;64573;50.328;15.014;2022-11-15T15:40:27;98481.31;;;4.72;98.72
75895;BME280;64573;50.328;15.014;2022-11-15T15:42:52;98500.78;;;4.80;98.70
75895;BME280;64573;50.328;15.014;2022-11-15T15:45:18;98485.84;;;4.79;98.47
75895;BME280;64573;50.328;15.014;2022-11-15T15:47:44;98492.81;;;4.80;98.76
75895;BME280;64573;50.328;15.014;2022-11-15T15:52:44;98498.97;;;4.81;98.85
75895;BME280;64573;50.328;15.014;2022-11-15T15:55:09;98493.81;;;4.79;98.62
75895;BME280;64573;50.328;15.014;2022-11-15T15:57:35;98488.63;;;4.78;98.76
75895;BME280;64573;50.328;15.014;2022-11-15T16:00:02;98492.66;;;4.82;98.78
75895;BME280;64573;50.328;15.014;2022-11-15T16:02:28;98484.84;;;4.80;99.12